CW8490 Weather Reports


Display with metric or nautical units.
time (UTC)temp
F
wind
direction
speed
MPH
gust
MPH
rain 1hr
in
rain 24hr
in
rain mn
in
humidity
%
barometer
mb
20240623073018 76 0.0 0.0 0.00 0.00 0.00 89 1011.6
20240623072039 76 23 1.0 2.0 0.00 0.00 0.00 88 1011.5
20240623071017 76 0 1.0 1.0 0.00 0.00 0.00 87 1011.5
20240623070037 77 0 1.0 2.0 0.00 0.00 0.00 87 1011.3
20240623065018 77 0 2.0 2.0 0.00 0.00 0.00 87 1011.4
20240623064017 78 0.0 0.0 0.00 0.00 0.00 88 1011.2
20240623063017 78 23 1.0 2.0 0.00 0.00 0.00 88 1011.1
20240623062017 78 0 1.0 2.0 0.00 0.00 0.00 88 1011.2
20240623061017 79 0 1.0 2.0 0.00 0.00 0.00 89 1011.0
20240623060018 79 0.0 1.0 0.00 0.00 0.00 88 1011.0
20240623055018 79 0 1.0 1.0 0.00 0.00 0.00 88 1011.0
20240623054018 79 0 1.0 2.0 0.00 0.00 0.00 88 1010.9
20240623053038 79 0 1.0 2.0 0.00 0.00 0.00 88 1010.8
20240623052018 79 0.0 0.0 0.00 0.00 0.00 87 1010.8
20240623051017 79 0.0 0.0 0.00 0.00 0.00 86 1010.6
20240623050018 79 0.0 0.0 0.00 0.00 0.00 85 1010.4
20240623045017 80 270 1.0 1.0 0.00 0.00 0.00 84 1010.4
20240623044036 81 0.0 1.0 0.00 0.00 0.00 82 1010.5
20240623043016 81 293 2.0 7.0 0.00 0.00 0.00 81 1010.3
20240623042017 81 0 3.0 4.0 0.00 0.00 0.00 80 1010.3
20240623041018 81 270 2.0 5.0 0.00 0.00 0.00 83 1009.3
20240623040016 81 203 3.0 4.0 0.00 0.00 0.00 83 1008.9
20240623035016 81 225 2.0 3.0 0.00 0.00 0.00 83 1009.0
20240623034017 81 203 2.0 4.0 0.00 0.00 0.00 82 1008.9
20240623033037 81 203 3.0 6.0 0.00 0.00 0.00 83 1009.0
20240623032017 81 203 3.0 5.0 0.00 0.00 0.00 83 1008.9
20240623031037 81 203 3.0 5.0 0.00 0.00 0.00 84 1008.8
20240623030017 81 270 1.0 3.0 0.00 0.00 0.00 83 1008.7
20240623025017 81 203 2.0 3.0 0.00 0.00 0.00 84 1008.4
20240623024016 81 225 3.0 4.0 0.00 0.00 0.00 85 1008.4
20240623023016 81 0.0 1.0 0.00 0.00 0.00 84 1008.4
20240623022017 82 180 2.0 3.0 0.00 0.00 0.00 83 1008.3
20240623021016 82 158 1.0 2.0 0.00 0.00 0.00 83 1008.1
20240623020016 82 180 2.0 2.0 0.00 0.00 0.00 83 1008.1
20240623015017 82 158 1.0 2.0 0.00 0.00 0.00 83 1008.2
20240623014017 82 158 1.0 3.0 0.00 0.00 0.00 83 1008.1
20240623013016 81 158 2.0 3.0 0.00 0.00 0.00 83 1008.2
20240623012016 82 0.0 1.0 0.00 0.00 0.00 85 1008.2
20240623011017 81 203 2.0 4.0 0.00 0.00 0.00 85 1008.2
20240623010017 81 225 5.0 8.0 0.00 0.00 0.00 86 1008.3
20240623005017 80 225 4.0 9.0 0.00 0.00 0.00 90 1008.5
20240623004016 81 0.0 0.0 0.00 0.00 0.00 91 1008.4
20240623003016 85 225 2.0 4.0 0.00 0.00 0.00 81 1008.5
20240623002017 90 225 8.0 14.0 0.00 0.00 0.00 67 1008.8
20240623001017 91 203 5.0 10.0 0.00 0.00 0.00 65 1008.6
20240623000016 91 225 6.0 8.0 0.00 0.00 0.00 65 1008.6
20240622235016 92 203 7.0 10.0 0.00 0.00 0.00 64 1008.7
20240622234016 92 270 3.0 8.0 0.00 0.00 0.00 63 1008.7
20240622233017 91 248 3.0 7.0 0.00 0.00 0.00 63 1008.7
20240622232017 92 203 8.0 13.0 0.00 0.00 0.00 63 1008.8
20240622231038 93 203 4.0 7.0 0.00 0.00 0.00 60 1008.8
20240622230039 94 248 4.0 8.0 0.00 0.00 0.00 60 1008.9
20240622225017 94 180 8.0 11.0 0.00 0.00 0.00 61 1009.0
20240622224017 94 225 6.0 10.0 0.00 0.00 0.00 60 1009.0
20240622223017 94 203 8.0 11.0 0.00 0.00 0.00 61 1009.3
20240622222017 93 180 10.0 16.0 0.00 0.00 0.00 61 1009.4
20240622221037 93 203 6.0 10.0 0.00 0.00 0.00 62 1009.5
20240622220017 93 203 6.0 11.0 0.00 0.00 0.00 61 1009.5
20240622215017 93 225 6.0 10.0 0.00 0.00 0.00 62 1009.6
20240622214017 93 203 10.0 15.0 0.00 0.00 0.00 61 1009.7
20240622213017 94 203 7.0 10.0 0.00 0.00 0.00 62 1009.8
20240622212017 93 270 3.0 9.0 0.00 0.00 0.00 60 1009.6
20240622211034 93 203 6.0 9.0 0.00 0.00 0.00 61 1009.6
20240622210317 93 225 7.0 11.0 0.00 0.00 0.00 62 1009.7
20240622205318 93 158 8.0 12.0 0.00 0.00 0.00 61 1009.8
20240622204317 93 248 9.0 14.0 0.00 0.00 0.00 62 1009.9
20240622203317 92 203 8.0 11.0 0.00 0.00 0.00 63 1010.0
20240622202317 92 225 9.0 13.0 0.00 0.00 0.00 61 1010.1
20240622201317 92 203 6.0 9.0 0.00 0.00 0.00 63 1010.3
20240622200318 92 203 10.0 14.0 0.00 0.00 0.00 62 1010.4
20240622195358 92 225 7.0 12.0 0.00 0.00 0.00 64 1010.4
20240622194318 92 225 8.0 14.0 0.00 0.00 0.00 63 1010.5
20240622193317 92 203 10.0 15.0 0.00 0.00 0.00 64 1010.6
20240622192317 92 225 9.0 13.0 0.00 0.00 0.00 63 1010.9
20240622191317 91 203 10.0 15.0 0.00 0.00 0.00 64 1010.9
20240622190317 91 203 6.0 11.0 0.00 0.00 0.00 66 1011.0
20240622185317 90 203 8.0 12.0 0.00 0.00 0.00 64 1011.2
20240622184317 91 225 9.0 13.0 0.00 0.00 0.00 65 1011.2
20240622183317 91 225 6.0 13.0 0.00 0.00 0.00 66 1011.4
20240622182317 90 225 4.0 7.0 0.00 0.00 0.00 67 1011.4
20240622181318 90 225 5.0 12.0 0.00 0.00 0.00 68 1011.7
20240622180337 89 203 12.0 16.0 0.00 0.00 0.00 66 1011.7
20240622175317 89 225 12.0 19.0 0.00 0.00 0.00 65 1011.8
20240622174338 89 225 6.0 10.0 0.00 0.00 0.00 66 1011.9
20240622173317 89 225 5.0 8.0 0.00 0.00 0.00 66 1012.0
20240622172338 89 203 9.0 12.0 0.00 0.00 0.00 68 1012.2
20240622171318 88 270 4.0 7.0 0.00 0.00 0.00 68 1012.2
20240622170317 88 203 9.0 12.0 0.00 0.00 0.00 69 1012.2
20240622165317 87 203 7.0 12.0 0.00 0.00 0.00 70 1012.4
20240622164318 87 180 9.0 13.0 0.00 0.00 0.00 69 1012.4
20240622163339 87 180 9.0 11.0 0.00 0.00 0.00 69 1012.6
20240622162317 86 203 8.0 10.0 0.00 0.00 0.00 70 1012.6
20240622161318 86 225 6.0 9.0 0.00 0.00 0.00 69 1012.7
20240622160337 86 225 7.0 12.0 0.00 0.00 0.00 71 1012.9
20240622155318 85 180 7.0 13.0 0.00 0.00 0.00 70 1012.8
20240622154338 84 180 6.0 10.0 0.00 0.00 0.00 72 1012.9
20240622153338 84 225 9.0 13.0 0.00 0.00 0.00 71 1013.1
20240622152317 83 225 8.0 11.0 0.00 0.00 0.00 73 1013.2
20240622151318 82 203 7.0 9.0 0.00 0.00 0.00 74 1013.4
20240622150338 81 180 7.0 10.0 0.00 0.00 0.00 77 1013.4
20240622145317 79 248 4.0 9.0 0.00 0.00 0.00 78 1013.5
20240622144318 79 203 7.0 8.0 0.00 0.00 0.00 77 1013.4
20240622143318 79 203 8.0 11.0 0.00 0.00 0.00 77 1013.6
20240622142318 79 203 4.0 7.0 0.00 0.00 0.00 77 1013.6
20240622141318 78 203 7.0 12.0 0.00 0.00 0.00 78 1013.6
20240622140318 78 203 8.0 11.0 0.00 0.00 0.00 77 1013.5
20240622135317 78 180 7.0 11.0 0.00 0.00 0.00 78 1013.7
20240622134319 78 158 8.0 10.0 0.00 0.00 0.00 78 1013.8
20240622133404 78 180 9.0 9.0 0.00 0.00 0.00 78 1013.9
20240622132617 78 203 8.0 12.0 0.00 0.00 0.00 77 1014.0
20240622131617 77 203 5.0 8.0 0.00 0.00 0.00 78 1014.1
20240622130617 77 225 5.0 7.0 0.00 0.00 0.00 78 1013.8
20240622125618 77 180 5.0 7.0 0.00 0.00 0.00 78 1014.1
20240622124618 77 158 6.0 9.0 0.00 0.00 0.00 78 1014.1
20240622123617 77 180 5.0 7.0 0.00 0.00 0.00 78 1014.2
20240622122618 76 158 5.0 10.0 0.00 0.00 0.00 80 1014.4
20240622121618 76 203 5.0 7.0 0.00 0.00 0.00 80 1014.5
20240622120618 76 225 5.0 6.0 0.00 0.00 0.00 80 1014.8
20240622115617 76 180 5.0 7.0 0.00 0.00 0.00 80 1014.7
20240622114618 76 225 5.0 7.0 0.00 0.00 0.00 80 1014.6
20240622113617 76 158 6.0 10.0 0.00 0.00 0.00 80 1014.6
20240622112637 75 203 5.0 8.0 0.00 0.00 0.00 80 1014.7
20240622111617 75 203 7.0 9.0 0.00 0.00 0.00 80 1014.8
20240622110618 75 180 4.0 6.0 0.00 0.00 0.00 81 1014.9
20240622105638 75 203 3.0 7.0 0.00 0.00 0.00 81 1015.0
20240622104638 75 203 4.0 6.0 0.00 0.00 0.00 80 1015.0
20240622103617 75 158 5.0 7.0 0.00 0.00 0.00 80 1014.9
20240622102619 75 203 5.0 6.0 0.00 0.00 0.00 80 1015.0
20240622101617 75 180 5.0 6.0 0.00 0.00 0.00 80 1015.2
20240622100659 75 225 4.0 6.0 0.00 0.00 0.00 80 1015.2
20240622095618 76 225 5.0 7.0 0.00 0.00 0.00 80 1015.1
20240622094617 76 180 7.0 14.0 0.00 0.00 0.00 80 1015.1
20240622093618 76 225 5.0 6.0 0.00 0.00 0.00 80 1015.3
20240622092618 76 203 7.0 13.0 0.00 0.00 0.00 79 1015.5
20240622091617 76 225 5.0 9.0 0.00 0.00 0.00 79 1015.4
20240622090616 76 203 5.0 8.0 0.00 0.00 0.00 79 1015.3
20240622085616 76 203 7.0 10.0 0.00 0.00 0.00 79 1015.3
20240622084615 76 180 6.0 7.0 0.00 0.00 0.00 79 1015.4
20240622083615 77 180 4.0 8.0 0.00 0.00 0.00 79 1015.5
20240622082616 76 180 4.0 6.0 0.00 0.00 0.00 80 1015.6
20240622081616 76 203 4.0 9.0 0.00 0.00 0.00 80 1015.8
20240622080616 76 225 3.0 5.0 0.00 0.00 0.00 81 1015.9
20240622075616 76 203 5.0 8.0 0.00 0.00 0.00 82 1015.9
20240622074647 76 0.0 0.0 0.00 0.00 0.00 83 1016.1
20240622073816 75 203 3.0 5.0 0.00 0.00 0.00 83 1016.0